Time;durP1;ratioP1;P1;durP2;ratioP2;P2;SDS_P1;SDS_P2;PMS_P1;PMS_P2;Temp;Humidity;BMP_temperature;BMP_pressure;BME280_temperature;BME280_humidity;BME280_pressure;Samples;Min_cycle;Max_cycle;Signal;HPM_P1;HPM_P2
2023/09/25 00:00:48;;;;;;;4.43;4.03;;;13.00;99.90;;;;;;4929537;28;88706;-33
2023/09/25 00:03:14;;;;;;;5.43;4.03;;;13.00;99.90;;;;;;4962208;28;91693;-34
2023/09/25 00:05:40;;;;;;;4.90;4.28;;;13.00;99.90;;;;;;4962694;28;90149;-33
2023/09/25 00:08:06;;;;;;;4.85;4.20;;;13.00;99.90;;;;;;4961630;28;89609;-35
2023/09/25 00:10:32;;;;;;;5.22;3.88;;;13.00;99.90;;;;;;4962907;28;90154;-37
2023/09/25 00:12:58;;;;;;;4.50;4.20;;;13.00;99.90;;;;;;4961798;28;90838;-36
2023/09/25 00:15:25;;;;;;;4.70;4.30;;;13.00;99.90;;;;;;4962598;28;89772;-34
2023/09/25 00:17:51;;;;;;;4.70;4.30;;;12.90;99.90;;;;;;4962138;28;89400;-33
2023/09/25 00:20:20;;;;;;;6.70;4.25;;;12.90;99.90;;;;;;4944482;28;89123;-35
2023/09/25 00:22:46;;;;;;;8.98;5.43;;;12.80;99.90;;;;;;4962256;28;90455;-36
2023/09/25 00:25:12;;;;;;;11.40;5.03;;;12.80;99.90;;;;;;4961797;28;89297;-40
2023/09/25 00:27:38;;;;;;;7.68;4.20;;;12.80;99.90;;;;;;4962633;28;89374;-36
2023/09/25 00:30:08;;;;;;;4.85;4.40;;;12.70;99.90;;;;;;4962153;28;89413;-35
2023/09/25 00:32:34;;;;;;;6.80;5.32;;;12.70;99.90;;;;;;4962071;28;90201;-38
2023/09/25 00:35:00;;;;;;;11.07;4.50;;;12.70;99.90;;;;;;4961743;28;91007;-34
2023/09/25 00:37:27;;;;;;;4.95;4.20;;;12.70;99.90;;;;;;4961018;28;89982;-36
2023/09/25 00:39:53;;;;;;;5.28;4.28;;;12.70;99.90;;;;;;4962758;28;89481;-36
2023/09/25 00:42:18;;;;;;;6.38;4.25;;;12.70;99.90;;;;;;4961850;28;90411;-37
2023/09/25 00:44:44;;;;;;;5.63;5.13;;;12.70;99.90;;;;;;4961630;28;90175;-36
2023/09/25 00:47:10;;;;;;;4.82;4.32;;;12.70;99.90;;;;;;4961608;28;89595;-33
2023/09/25 00:49:36;;;;;;;4.85;4.40;;;12.70;99.90;;;;;;4962161;28;88735;-37
2023/09/25 00:52:03;;;;;;;5.88;5.03;;;12.70;99.90;;;;;;4944405;28;89584;-37
2023/09/25 00:54:31;;;;;;;4.45;4.05;;;12.70;99.90;;;;;;4960491;28;89718;-39
2023/09/25 00:56:58;;;;;;;5.15;4.53;;;12.70;99.90;;;;;;4961207;28;90019;-35
2023/09/25 00:59:25;;;;;;;4.25;3.47;;;12.70;99.90;;;;;;4961915;28;90686;-36
2023/09/25 01:01:50;;;;;;;4.82;4.43;;;12.70;99.90;;;;;;4961436;28;92177;-36
2023/09/25 01:04:16;;;;;;;5.15;4.68;;;12.80;99.90;;;;;;4961562;28;89691;-35
2023/09/25 01:06:43;;;;;;;4.38;3.90;;;12.80;99.90;;;;;;4943600;28;89636;-37
2023/09/25 01:09:09;;;;;;;4.07;3.67;;;12.80;99.90;;;;;;4961947;28;90321;-35
2023/09/25 01:11:35;;;;;;;7.50;4.43;;;12.70;99.90;;;;;;4961744;28;90787;-38
2023/09/25 01:14:00;;;;;;;4.20;3.67;;;12.70;99.90;;;;;;4961360;28;89678;-37
2023/09/25 01:16:26;;;;;;;5.28;4.28;;;12.70;99.90;;;;;;4961337;28;89604;-35
2023/09/25 01:18:52;;;;;;;3.92;3.60;;;12.70;99.90;;;;;;4961822;28;87945;-36
2023/09/25 01:21:18;;;;;;;6.38;3.92;;;12.70;99.90;;;;;;4961062;28;89937;-34
2023/09/25 01:23:43;;;;;;;5.05;3.78;;;12.70;99.90;;;;;;4961141;28;90303;-34
2023/09/25 01:26:09;;;;;;;7.95;3.78;;;12.70;99.90;;;;;;4943803;28;90876;-35
2023/09/25 01:28:35;;;;;;;4.18;3.85;;;12.60;99.90;;;;;;4961728;28;87831;-36
2023/09/25 01:31:00;;;;;;;4.28;3.55;;;12.70;99.90;;;;;;4961147;28;89080;-39
2023/09/25 01:33:26;;;;;;;6.10;3.60;;;12.70;99.90;;;;;;4960793;28;88857;-38
2023/09/25 01:35:52;;;;;;;4.88;4.47;;;12.60;99.90;;;;;;4961284;28;89387;-37
2023/09/25 01:38:18;;;;;;;5.18;3.88;;;12.60;99.90;;;;;;4961191;28;88280;-35
2023/09/25 01:40:43;;;;;;;5.07;3.95;;;12.60;99.90;;;;;;4943601;28;89369;-34
2023/09/25 01:43:09;;;;;;;3.53;3.22;;;12.60;99.90;;;;;;4960697;28;90371;-33
2023/09/25 01:45:35;;;;;;;3.83;3.42;;;12.60;99.90;;;;;;4943605;28;89361;-35
2023/09/25 01:48:00;;;;;;;6.32;4.35;;;12.60;99.90;;;;;;4959913;28;91072;-39
2023/09/25 01:50:28;;;;;;;4.43;3.90;;;12.60;99.90;;;;;;4961377;28;90165;-34
2023/09/25 01:52:58;;;;;;;5.03;4.63;;;12.60;99.90;;;;;;4960804;28;89603;-34
2023/09/25 01:55:28;;;;;;;4.22;3.78;;;12.60;99.90;;;;;;4960842;28;91489;-34
2023/09/25 01:57:54;;;;;;;5.15;4.30;;;12.50;99.90;;;;;;4960047;28;88942;-38
2023/09/25 02:00:20;;;;;;;4.15;3.83;;;12.50;99.90;;;;;;4960663;28;90325;-35
2023/09/25 02:02:46;;;;;;;4.88;3.80;;;12.50;99.90;;;;;;4960492;28;89521;-36
2023/09/25 02:05:12;;;;;;;4.00;3.70;;;12.50;99.90;;;;;;4961377;28;88943;-35
2023/09/25 02:07:38;;;;;;;4.22;3.78;;;12.50;99.90;;;;;;4960435;28;89390;-35
2023/09/25 02:10:04;;;;;;;4.60;4.20;;;12.50;99.90;;;;;;4960557;28;90216;-34
2023/09/25 02:12:30;;;;;;;7.65;4.05;;;12.50;99.90;;;;;;4959958;28;90085;-34
2023/09/25 02:15:00;;;;;;;4.45;4.05;;;12.40;99.90;;;;;;4943016;28;91875;-35
2023/09/25 02:17:29;;;;;;;4.95;4.55;;;12.40;99.90;;;;;;4960797;28;89824;-35
2023/09/25 02:22:42;;;;;;;5.70;4.55;;;12.40;99.90;;;;;;4960194;28;89717;-34
2023/09/25 02:25:08;;;;;;;4.95;4.40;;;12.30;99.90;;;;;;4960562;28;89439;-37
2023/09/25 02:27:34;;;;;;;5.90;5.05;;;12.40;99.90;;;;;;4961159;28;90224;-33
2023/09/25 02:30:00;;;;;;;4.63;4.25;;;12.30;99.90;;;;;;4960300;28;88895;-37
2023/09/25 02:32:26;;;;;;;4.22;3.83;;;12.30;99.90;;;;;;4960891;28;90732;-36
2023/09/25 02:34:51;;;;;;;4.70;4.30;;;12.30;99.90;;;;;;4960065;28;88885;-36
2023/09/25 02:37:17;;;;;;;5.13;4.72;;;12.30;99.90;;;;;;4959850;28;89952;-36
2023/09/25 02:39:43;;;;;;;4.60;4.20;;;12.30;99.90;;;;;;4959526;28;90519;-32
2023/09/25 02:42:09;;;;;;;5.10;4.60;;;12.30;99.90;;;;;;4960118;28;89716;-36
2023/09/25 02:44:34;;;;;;;5.13;4.50;;;12.30;99.90;;;;;;4959559;28;89545;-36
2023/09/25 02:47:00;;;;;;;4.72;4.30;;;12.30;99.90;;;;;;4960562;28;89177;-35
2023/09/25 02:49:26;;;;;;;5.00;4.55;;;12.30;99.90;;;;;;4960161;28;90122;-36
2023/09/25 02:51:51;;;;;;;6.03;5.25;;;12.30;99.90;;;;;;4959800;28;89772;-36
2023/09/25 02:54:17;;;;;;;6.50;4.97;;;12.30;99.90;;;;;;4960049;28;89923;-40
2023/09/25 02:56:43;;;;;;;4.68;4.28;;;12.30;99.90;;;;;;4959789;28;89878;-37
2023/09/25 02:59:09;;;;;;;4.85;4.32;;;12.30;99.90;;;;;;4959897;28;89710;-37
2023/09/25 03:01:34;;;;;;;7.68;3.88;;;12.30;99.90;;;;;;4941627;28;90556;-34
2023/09/25 03:04:00;;;;;;;3.72;2.90;;;12.30;99.90;;;;;;4942394;28;89162;-35
2023/09/25 03:06:26;;;;;;;5.13;4.63;;;12.30;99.90;;;;;;4959613;28;88837;-35
2023/09/25 03:08:51;;;;;;;4.40;4.00;;;12.30;99.90;;;;;;4959871;28;89996;-33
2023/09/25 03:11:17;;;;;;;5.00;4.38;;;12.20;99.90;;;;;;4959678;28;89964;-36
2023/09/25 03:13:42;;;;;;;4.72;4.32;;;12.20;99.90;;;;;;4959788;28;88815;-33
2023/09/25 03:16:15;;;;;;;5.10;4.47;;;12.20;99.90;;;;;;4959614;28;89135;-37
2023/09/25 03:18:41;;;;;;;4.45;4.13;;;12.20;99.90;;;;;;4958555;28;90043;-35
2023/09/25 03:21:11;;;;;;;5.28;4.47;;;12.20;99.90;;;;;;4959914;28;89468;-34
2023/09/25 03:23:36;;;;;;;5.63;5.00;;;12.20;99.90;;;;;;4959538;28;89313;-37
2023/09/25 03:26:02;;;;;;;6.60;5.63;;;12.20;99.90;;;;;;4959027;28;89983;-35
2023/09/25 03:28:28;;;;;;;4.47;4.13;;;12.20;99.90;;;;;;4959183;28;91348;-33
2023/09/25 03:30:53;;;;;;;5.55;4.75;;;12.10;99.90;;;;;;4959831;28;89811;-35
2023/09/25 03:33:21;;;;;;;5.07;4.57;;;12.10;99.90;;;;;;4959604;28;88754;-35
2023/09/25 03:35:47;;;;;;;5.68;5.15;;;12.10;99.90;;;;;;4959081;28;88381;-37
2023/09/25 03:38:12;;;;;;;4.95;4.45;;;12.10;99.90;;;;;;4958623;28;91402;-36
2023/09/25 03:40:38;;;;;;;4.85;4.35;;;12.10;99.90;;;;;;4959487;28;89793;-36
2023/09/25 03:43:03;;;;;;;6.25;5.05;;;12.10;99.90;;;;;;4959303;28;90039;-35
2023/09/25 03:45:29;;;;;;;6.35;5.00;;;12.10;99.90;;;;;;4959420;28;89337;-34
2023/09/25 03:47:55;;;;;;;6.38;5.53;;;12.10;99.90;;;;;;4958640;28;90256;-33
2023/09/25 03:50:20;;;;;;;5.35;4.50;;;12.10;99.90;;;;;;4958797;28;90677;-35
2023/09/25 03:52:46;;;;;;;11.68;5.75;;;12.10;99.90;;;;;;4959155;28;89402;-36
2023/09/25 03:55:12;;;;;;;6.53;5.57;;;12.10;99.90;;;;;;4959645;28;89113;-33
2023/09/25 03:57:37;;;;;;;4.78;4.35;;;12.10;99.90;;;;;;4958998;28;89960;-33
2023/09/25 04:00:06;;;;;;;5.05;4.22;;;12.10;99.90;;;;;;4958962;28;89679;-33
2023/09/25 04:02:32;;;;;;;6.43;5.82;;;12.10;99.90;;;;;;4958716;28;88228;-37
2023/09/25 04:04:57;;;;;;;8.75;5.35;;;12.10;99.90;;;;;;4959431;28;88981;-37
2023/09/25 04:07:23;;;;;;;9.20;5.35;;;12.10;99.90;;;;;;4958638;28;90244;-33
2023/09/25 04:09:49;;;;;;;6.68;5.28;;;12.10;99.90;;;;;;4958642;28;90017;-34
2023/09/25 04:12:14;;;;;;;5.65;5.03;;;12.10;99.90;;;;;;4958150;28;89442;-39
2023/09/25 04:14:41;;;;;;;6.50;4.55;;;12.10;99.90;;;;;;4958776;28;90038;-36
2023/09/25 04:17:08;;;;;;;5.30;4.80;;;12.10;99.90;;;;;;4958343;28;90328;-40
2023/09/25 04:19:33;;;;;;;8.00;4.95;;;12.00;99.90;;;;;;4958986;28;89549;-34
2023/09/25 04:21:59;;;;;;;4.10;3.70;;;12.10;99.90;;;;;;4958296;28;89672;-40
2023/09/25 04:24:25;;;;;;;4.85;4.45;;;12.10;99.90;;;;;;4959393;28;89766;-36
2023/09/25 04:26:52;;;;;;;6.25;4.65;;;12.00;99.90;;;;;;4958844;28;90371;-33
2023/09/25 04:29:17;;;;;;;9.73;5.30;;;12.00;99.90;;;;;;4959978;28;89937;-34
2023/09/25 04:31:46;;;;;;;5.38;4.70;;;12.00;99.90;;;;;;4961955;28;90112;-34
2023/09/25 04:34:12;;;;;;;5.82;4.93;;;12.00;99.90;;;;;;4962263;28;89239;-34
2023/09/25 04:36:38;;;;;;;7.72;5.35;;;12.10;99.90;;;;;;4962043;28;91515;-35
2023/09/25 04:39:04;;;;;;;5.97;5.45;;;12.00;99.90;;;;;;4961476;28;90822;-37
2023/09/25 04:41:30;;;;;;;6.38;5.78;;;12.00;99.90;;;;;;4961555;28;90821;-35
2023/09/25 04:43:55;;;;;;;5.68;4.75;;;12.00;99.90;;;;;;4962137;28;88055;-38
2023/09/25 04:46:21;;;;;;;5.65;5.10;;;12.00;99.90;;;;;;4961576;28;89899;-36
2023/09/25 04:48:47;;;;;;;6.38;4.88;;;12.00;99.90;;;;;;4962505;28;89619;-34
2023/09/25 04:51:16;;;;;;;13.98;6.00;;;12.00;99.90;;;;;;4961336;28;90085;-40
2023/09/25 04:53:42;;;;;;;7.65;5.60;;;12.00;99.90;;;;;;4962327;28;90053;-33
2023/09/25 04:56:10;;;;;;;7.28;5.07;;;12.00;99.90;;;;;;4962469;28;89369;-38
2023/09/25 04:58:36;;;;;;;4.07;3.17;;;12.10;99.90;;;;;;4961892;28;89302;-36
2023/09/25 05:01:01;;;;;;;5.72;5.13;;;12.00;99.90;;;;;;4961837;28;89979;-36
2023/09/25 05:03:27;;;;;;;7.13;5.00;;;12.00;99.90;;;;;;4961680;28;90094;-39
2023/09/25 05:05:52;;;;;;;3.80;3.20;;;12.00;99.90;;;;;;4961670;28;89976;-38
2023/09/25 05:08:18;;;;;;;4.03;3.13;;;12.00;99.90;;;;;;4955105;28;89909;-35
2023/09/25 05:10:45;;;;;;;5.78;5.28;;;12.00;99.90;;;;;;4946362;28;90866;-37
2023/09/25 05:13:11;;;;;;;4.45;4.05;;;12.00;99.90;;;;;;4942217;28;89149;-35
2023/09/25 05:15:36;;;;;;;4.65;4.18;;;12.00;99.90;;;;;;4942194;28;88780;-35
2023/09/25 05:18:02;;;;;;;10.20;5.18;;;12.00;99.90;;;;;;4942128;28;90028;-35
2023/09/25 05:20:28;;;;;;;5.65;3.85;;;12.10;99.90;;;;;;4923824;28;89680;-37
2023/09/25 05:22:55;;;;;;;5.60;5.07;;;12.00;99.90;;;;;;4942543;28;89046;-37
2023/09/25 05:25:22;;;;;;;6.78;5.57;;;12.10;99.90;;;;;;4941996;28;89645;-34
2023/09/25 05:27:50;;;;;;;5.45;4.35;;;12.10;99.90;;;;;;4941948;28;90850;-34
2023/09/25 05:30:17;;;;;;;5.53;4.13;;;12.10;99.90;;;;;;4942164;28;89488;-36
2023/09/25 05:32:48;;;;;;;4.75;4.32;;;12.10;99.90;;;;;;4941289;28;89482;-35
2023/09/25 05:38:11;;;;;;;5.22;4.70;;;12.10;99.90;;;;;;4920191;28;89807;-33
2023/09/25 05:40:37;;;;;;;4.80;4.22;;;12.10;99.90;;;;;;4922220;28;90245;-37
2023/09/25 05:43:03;;;;;;;2.50;2.30;;;12.10;99.90;;;;;;4922694;28;88807;-40
2023/09/25 05:45:28;;;;;;;5.28;4.88;;;12.10;99.90;;;;;;4923055;28;88911;-39
2023/09/25 05:47:54;;;;;;;4.53;4.13;;;12.10;99.90;;;;;;4922249;28;89810;-39
2023/09/25 05:50:19;;;;;;;6.00;4.32;;;12.10;99.90;;;;;;4921939;28;89770;-35
2023/09/25 05:52:45;;;;;;;4.57;4.15;;;12.20;99.90;;;;;;4921540;28;89622;-34
2023/09/25 05:55:10;;;;;;;6.47;4.93;;;12.20;99.90;;;;;;4917961;28;90723;-37
2023/09/25 05:57:36;;;;;;;5.45;4.88;;;12.20;99.90;;;;;;4919247;28;90257;-38
2023/09/25 06:00:10;;;;;;;4.97;4.55;;;12.20;99.90;;;;;;4919508;28;89823;-39
2023/09/25 06:02:36;;;;;;;4.32;3.92;;;12.30;99.90;;;;;;4918751;28;90041;-35
2023/09/25 06:05:02;;;;;;;5.95;4.45;;;12.30;99.90;;;;;;4920418;28;90069;-35
2023/09/25 06:07:28;;;;;;;3.85;2.78;;;12.30;99.90;;;;;;4919591;28;90052;-34
2023/09/25 06:09:54;;;;;;;5.85;4.50;;;12.40;99.90;;;;;;4919417;28;89415;-35
2023/09/25 06:12:19;;;;;;;5.18;4.68;;;12.40;99.90;;;;;;4919788;28;90066;-38
2023/09/25 06:14:45;;;;;;;6.07;2.60;;;12.40;99.90;;;;;;4919865;28;89133;-37
2023/09/25 06:17:10;;;;;;;7.43;5.43;;;12.50;99.90;;;;;;4918333;28;89533;-34
2023/09/25 06:19:36;;;;;;;4.53;4.10;;;12.50;99.90;;;;;;4919658;28;90644;-34
2023/09/25 06:22:02;;;;;;;6.65;4.32;;;12.50;99.90;;;;;;4918664;28;88460;-39
2023/09/25 06:24:28;;;;;;;9.13;4.00;;;12.50;99.90;;;;;;4918163;28;89819;-34
2023/09/25 06:26:53;;;;;;;6.68;4.78;;;12.60;99.90;;;;;;4918774;28;90315;-36
2023/09/25 06:29:21;;;;;;;4.10;3.80;;;12.60;99.90;;;;;;4919507;28;89390;-33
2023/09/25 06:31:47;;;;;;;4.53;4.13;;;12.70;99.90;;;;;;4919525;28;89003;-39
2023/09/25 06:34:13;;;;;;;3.88;3.50;;;12.70;99.90;;;;;;4917248;28;90159;-35
2023/09/25 06:36:39;;;;;;;5.57;4.80;;;12.80;99.90;;;;;;4918472;28;90066;-37
2023/09/25 06:39:09;;;;;;;6.88;5.25;;;12.80;99.90;;;;;;4918471;28;88473;-38
2023/09/25 06:41:41;;;;;;;5.15;4.70;;;12.80;99.90;;;;;;4934350;28;89913;-35
2023/09/25 06:44:07;;;;;;;6.00;4.57;;;12.80;99.90;;;;;;4919473;28;90802;-34
2023/09/25 06:46:34;;;;;;;4.72;4.20;;;12.90;99.90;;;;;;4918535;28;90094;-40
2023/09/25 06:49:00;;;;;;;6.30;4.15;;;12.90;99.90;;;;;;4918916;28;89189;-32
2023/09/25 06:51:27;;;;;;;4.82;4.35;;;13.00;99.90;;;;;;4918959;28;90110;-34
2023/09/25 06:53:53;;;;;;;7.53;4.25;;;13.00;99.90;;;;;;4917436;28;90019;-34
2023/09/25 06:56:19;;;;;;;4.05;3.67;;;13.10;99.90;;;;;;4918473;28;89770;-35
2023/09/25 06:58:44;;;;;;;103.57;34.75;;;13.10;99.90;;;;;;4919237;28;89700;-37
2023/09/25 07:01:10;;;;;;;11.07;6.60;;;13.20;99.90;;;;;;4917209;28;89056;-36
2023/09/25 07:03:36;;;;;;;5.70;4.68;;;13.20;99.90;;;;;;4919590;28;90654;-33
2023/09/25 07:06:02;;;;;;;6.95;4.88;;;13.30;99.90;;;;;;4918551;28;91301;-33
2023/09/25 07:08:28;;;;;;;16.50;9.20;;;13.40;99.90;;;;;;4918463;28;89238;-34
2023/09/25 07:10:53;;;;;;;10.45;6.72;;;13.50;99.90;;;;;;4918771;28;89538;-35
2023/09/25 07:13:20;;;;;;;6.03;4.38;;;13.50;99.90;;;;;;4919014;28;90237;-37
2023/09/25 07:15:47;;;;;;;36.22;12.60;;;13.60;99.90;;;;;;4918748;28;89665;-35
2023/09/25 07:18:13;;;;;;;6.25;4.95;;;13.70;99.90;;;;;;4918499;28;89183;-37
2023/09/25 07:20:39;;;;;;;3.78;3.47;;;13.80;99.90;;;;;;4918935;28;88305;-39
2023/09/25 07:23:05;;;;;;;8.07;4.15;;;13.90;99.90;;;;;;4918127;28;89308;-35
2023/09/25 07:25:30;;;;;;;6.50;4.47;;;14.00;99.90;;;;;;4918959;28;89994;-38
2023/09/25 07:27:56;;;;;;;4.65;4.30;;;14.20;99.90;;;;;;4918767;28;89746;-36
2023/09/25 07:30:22;;;;;;;4.65;4.05;;;14.30;99.90;;;;;;4917696;28;88546;-40
2023/09/25 07:32:48;;;;;;;4.53;4.15;;;14.40;99.90;;;;;;4918125;28;90500;-36
2023/09/25 07:35:15;;;;;;;4.30;3.90;;;14.50;99.90;;;;;;4918368;28;88836;-37
2023/09/25 07:37:41;;;;;;;3.33;3.03;;;14.70;99.90;;;;;;4916707;28;90006;-38
2023/09/25 07:40:11;;;;;;;4.28;3.88;;;14.80;99.90;;;;;;4917406;28;88387;-40
2023/09/25 07:42:38;;;;;;;4.63;4.13;;;14.80;99.90;;;;;;4916820;28;90293;-39
2023/09/25 07:45:06;;;;;;;8.90;3.53;;;15.00;99.90;;;;;;4918181;28;89375;-33
2023/09/25 07:47:38;;;;;;;6.05;3.85;;;15.00;99.90;;;;;;4917849;28;87892;-34
2023/09/25 07:50:10;;;;;;;5.43;3.85;;;15.10;99.90;;;;;;4918214;28;88536;-37
2023/09/25 07:52:39;;;;;;;3.95;3.45;;;15.20;99.90;;;;;;4916383;28;90719;-35
2023/09/25 07:55:10;;;;;;;4.35;3.55;;;15.20;99.90;;;;;;4917529;28;90298;-36
2023/09/25 07:57:40;;;;;;;3.45;3.15;;;15.30;99.90;;;;;;4918513;28;89562;-38
2023/09/25 08:00:25;;;;;;;3.38;3.08;;;15.40;99.90;;;;;;4917161;28;88405;-35
2023/09/25 08:02:52;;;;;;;4.05;3.25;;;15.50;99.90;;;;;;4918512;28;89174;-36
2023/09/25 08:05:22;;;;;;;4.40;3.30;;;15.50;99.90;;;;;;4921017;28;90093;-37
2023/09/25 08:07:49;;;;;;;4.70;3.30;;;15.50;99.90;;;;;;4920530;28;89405;-36
2023/09/25 08:10:17;;;;;;;3.80;3.28;;;15.60;99.90;;;;;;4922536;28;89615;-34
2023/09/25 08:12:44;;;;;;;4.28;3.50;;;15.60;99.90;;;;;;4921267;28;91131;-35
2023/09/25 08:15:10;;;;;;;4.57;2.65;;;15.70;99.90;;;;;;4920759;28;89931;-34
2023/09/25 08:17:36;;;;;;;3.10;2.80;;;15.70;99.90;;;;;;4920076;28;89164;-36
2023/09/25 08:20:13;;;;;;;6.50;4.32;;;15.80;99.90;;;;;;4919119;28;89443;-38
2023/09/25 08:22:42;;;;;;;5.32;3.78;;;15.80;99.90;;;;;;4920973;28;90802;-36
2023/09/25 08:25:09;;;;;;;6.47;3.28;;;15.90;99.90;;;;;;4921596;28;89553;-35
2023/09/25 08:27:35;;;;;;;5.07;2.97;;;15.90;99.90;;;;;;4921050;28;89824;-39
2023/09/25 08:30:03;;;;;;;2.75;2.55;;;16.10;99.90;;;;;;4921347;28;88613;-37
2023/09/25 08:32:29;;;;;;;3.92;2.90;;;16.20;99.90;;;;;;4920976;28;91424;-36
2023/09/25 08:34:54;;;;;;;3.17;2.90;;;16.30;99.90;;;;;;4936268;28;89819;-33
2023/09/25 08:37:20;;;;;;;4.10;3.70;;;16.30;99.90;;;;;;4919741;28;88759;-37
2023/09/25 08:39:46;;;;;;;5.95;3.35;;;16.40;99.90;;;;;;4922013;28;89625;-33
2023/09/25 08:42:11;;;;;;;3.08;2.70;;;16.50;99.90;;;;;;4921469;28;90234;-39
2023/09/25 08:44:37;;;;;;;3.17;2.88;;;16.60;99.90;;;;;;4920011;28;90755;-37
2023/09/25 08:47:03;;;;;;;3.45;3.15;;;16.70;99.90;;;;;;4921134;28;89801;-36
2023/09/25 08:49:31;;;;;;;7.97;3.47;;;16.80;99.90;;;;;;4921930;28;89163;-35
2023/09/25 08:51:57;;;;;;;3.58;3.25;;;16.90;99.90;;;;;;4919099;28;92631;-34
2023/09/25 08:54:22;;;;;;;2.97;2.67;;;17.00;99.90;;;;;;4921294;28;89052;-34
2023/09/25 08:56:49;;;;;;;4.88;3.40;;;16.90;99.90;;;;;;4921061;28;88883;-38
2023/09/25 08:59:15;;;;;;;4.45;3.28;;;16.90;99.90;;;;;;4920027;28;88646;-34
2023/09/25 09:01:42;;;;;;;3.95;2.95;;;16.90;99.90;;;;;;4920704;28;90742;-36
2023/09/25 09:04:07;;;;;;;3.30;3.00;;;16.90;99.90;;;;;;4920521;28;89530;-34
2023/09/25 09:06:33;;;;;;;5.97;3.78;;;16.90;99.90;;;;;;4920038;28;89121;-36
2023/09/25 09:08:59;;;;;;;5.68;2.63;;;17.00;99.90;;;;;;4920476;28;90192;-36
2023/09/25 09:11:25;;;;;;;4.57;3.88;;;17.00;99.90;;;;;;4920869;28;90148;-35
2023/09/25 09:13:50;;;;;;;2.80;2.55;;;17.20;99.90;;;;;;4921120;28;89713;-36
2023/09/25 09:16:19;;;;;;;3.13;2.83;;;17.30;99.90;;;;;;4919072;28;89382;-36
2023/09/25 09:18:46;;;;;;;3.78;2.85;;;17.40;99.90;;;;;;4920392;28;89395;-37
2023/09/25 09:21:26;;;;;;;4.10;2.73;;;17.60;99.90;;;;;;4920645;28;91648;-35
2023/09/25 09:23:54;;;;;;;3.42;3.13;;;17.80;99.90;;;;;;4920201;28;90042;-35
2023/09/25 09:26:20;;;;;;;3.70;2.67;;;17.90;99.90;;;;;;4921621;28;88671;-36
2023/09/25 09:28:46;;;;;;;3.10;2.80;;;18.00;99.90;;;;;;4918993;28;88586;-33
2023/09/25 09:31:14;;;;;;;3.75;2.83;;;18.10;99.90;;;;;;4920030;28;90185;-37
2023/09/25 09:33:43;;;;;;;3.35;3.05;;;18.10;99.90;;;;;;4920294;28;89349;-33
2023/09/25 09:36:11;;;;;;;3.00;2.47;;;18.20;99.90;;;;;;4920136;28;90123;-35
2023/09/25 09:38:39;;;;;;;4.40;3.03;;;18.20;99.90;;;;;;4920623;28;89439;-38
2023/09/25 09:41:06;;;;;;;3.67;2.78;;;18.30;99.90;;;;;;4920816;28;89977;-33
2023/09/25 09:43:32;;;;;;;3.88;3.47;;;18.40;99.90;;;;;;4920646;28;89889;-37
2023/09/25 09:45:59;;;;;;;2.85;2.65;;;18.40;99.90;;;;;;4920807;28;89614;-37
2023/09/25 09:48:28;;;;;;;3.65;2.72;;;18.50;99.90;;;;;;4935430;28;88725;-35
2023/09/25 09:50:59;;;;;;;3.38;2.50;;;18.40;99.90;;;;;;4919332;28;90362;-35
2023/09/25 09:53:28;;;;;;;2.42;2.30;;;18.40;99.90;;;;;;4920518;28;89481;-34
2023/09/25 09:55:54;;;;;;;3.47;2.72;;;18.50;99.90;;;;;;4920299;28;89407;-35
2023/09/25 09:58:20;;;;;;;2.50;2.30;;;18.50;99.90;;;;;;4919507;28;89347;-37
2023/09/25 10:00:46;;;;;;;4.13;3.15;;;18.50;99.90;;;;;;4919471;28;90211;-33
2023/09/25 10:03:12;;;;;;;5.55;3.08;;;18.50;99.90;;;;;;4919903;28;89621;-33
2023/09/25 10:05:51;;;;;;;4.00;2.53;;;18.50;99.90;;;;;;4934990;28;89324;-37
2023/09/25 10:08:17;;;;;;;5.63;2.85;;;18.60;99.90;;;;;;4919719;28;88966;-38
2023/09/25 10:10:48;;;;;;;5.32;2.83;;;18.50;99.90;;;;;;4920244;28;90788;-33
2023/09/25 10:13:29;;;;;;;2.45;2.25;;;18.60;99.90;;;;;;4918871;28;89738;-34
2023/09/25 10:16:00;;;;;;;3.97;2.10;;;18.60;99.90;;;;;;4919794;28;88885;-33
2023/09/25 10:18:27;;;;;;;3.33;2.55;;;18.70;99.90;;;;;;4920341;28;88785;-33
2023/09/25 10:21:08;;;;;;;5.57;2.85;;;18.70;99.90;;;;;;4918550;28;89258;-35
2023/09/25 10:23:34;;;;;;;4.80;2.75;;;18.80;99.90;;;;;;4919239;28;90943;-33
2023/09/25 10:26:03;;;;;;;6.22;2.40;;;18.80;99.90;;;;;;4919432;28;89989;-34
2023/09/25 10:28:36;;;;;;;5.00;2.83;;;18.90;99.90;;;;;;4919120;28;88893;-37
2023/09/25 10:31:04;;;;;;;6.97;3.22;;;19.00;99.90;;;;;;4919588;28;90132;-35
2023/09/25 10:33:33;;;;;;;2.67;2.20;;;19.10;99.90;;;;;;4919342;28;91002;-33
2023/09/25 10:36:04;;;;;;;3.38;2.25;;;19.10;99.90;;;;;;4918205;28;88967;-37
2023/09/25 10:38:33;;;;;;;30.00;8.48;;;19.10;99.90;;;;;;4919449;28;88420;-34
2023/09/25 10:41:16;;;;;;;8.20;3.40;;;19.20;99.90;;;;;;4919018;28;89943;-37
2023/09/25 10:43:42;;;;;;;4.75;2.95;;;19.40;99.90;;;;;;4919457;28;90996;-33
2023/09/25 10:46:09;;;;;;;24.08;7.00;;;19.50;99.90;;;;;;4919590;28;89384;-35
2023/09/25 10:48:35;;;;;;;5.50;2.63;;;19.50;99.90;;;;;;4918753;28;88865;-34
2023/09/25 10:51:01;;;;;;;2.88;2.15;;;19.60;99.90;;;;;;4917760;28;90225;-36
2023/09/25 10:53:27;;;;;;;2.67;1.85;;;19.60;99.90;;;;;;4919311;28;90278;-34
2023/09/25 10:55:53;;;;;;;2.53;2.05;;;19.60;99.90;;;;;;4919169;28;89867;-37
2023/09/25 10:58:21;;;;;;;4.00;2.72;;;19.70;99.90;;;;;;4918425;28;89459;-37
2023/09/25 11:00:49;;;;;;;4.78;2.75;;;19.70;99.90;;;;;;4918866;28;90533;-38
2023/09/25 11:03:15;;;;;;;2.85;2.10;;;19.70;99.90;;;;;;4918989;28;89110;-35
2023/09/25 11:05:41;;;;;;;5.45;2.40;;;19.80;99.90;;;;;;4918015;28;89958;-36
2023/09/25 11:08:13;;;;;;;4.68;2.35;;;19.80;99.90;;;;;;4918707;28;89062;-34
2023/09/25 11:10:40;;;;;;;2.35;2.15;;;19.80;99.90;;;;;;4919168;28;89711;-33
2023/09/25 11:13:05;;;;;;;6.68;2.55;;;19.70;99.90;;;;;;4917462;28;90592;-35
2023/09/25 11:15:36;;;;;;;3.38;2.78;;;19.70;99.90;;;;;;4919469;28;90401;-38
2023/09/25 11:18:03;;;;;;;2.80;1.92;;;19.80;99.90;;;;;;4918893;28;88432;-37
2023/09/25 11:20:33;;;;;;;3.60;2.28;;;19.80;99.90;;;;;;4917356;28;90964;-34
2023/09/25 11:23:09;;;;;;;2.80;2.08;;;19.80;99.90;;;;;;4918520;28;89616;-35
2023/09/25 11:25:43;;;;;;;8.93;2.50;;;19.90;99.90;;;;;;4918597;28;89043;-38
2023/09/25 11:28:11;;;;;;;3.90;2.67;;;19.80;99.90;;;;;;4917536;28;89589;-35
2023/09/25 11:30:38;;;;;;;2.90;2.45;;;19.80;99.90;;;;;;4918852;28;90462;-34
2023/09/25 11:33:08;;;;;;;2.63;2.42;;;19.80;99.90;;;;;;4918988;28;89873;-33
2023/09/25 11:35:37;;;;;;;3.17;2.70;;;19.70;99.90;;;;;;4917572;28;89455;-34
2023/09/25 11:38:24;;;;;;;3.88;2.58;;;19.80;99.90;;;;;;4918064;28;88558;-35
2023/09/25 11:40:52;;;;;;;3.30;2.65;;;20.00;99.90;;;;;;4918618;28;90983;-36
2023/09/25 11:43:18;;;;;;;3.50;2.38;;;20.10;99.90;;;;;;4918423;28;89843;-33
2023/09/25 11:45:44;;;;;;;3.13;2.38;;;20.10;99.90;;;;;;4918882;28;89000;-33
2023/09/25 11:48:10;;;;;;;4.60;2.92;;;20.30;99.90;;;;;;4919466;28;88104;-33
2023/09/25 11:50:37;;;;;;;2.65;2.33;;;20.30;99.90;;;;;;4917668;28;90367;-38
2023/09/25 11:53:03;;;;;;;2.72;2.05;;;20.30;99.90;;;;;;4917025;28;90644;-37
2023/09/25 11:55:29;;;;;;;8.13;3.38;;;20.30;99.90;;;;;;4916541;28;89184;-36
2023/09/25 11:57:55;;;;;;;93.63;12.38;;;20.20;99.90;;;;;;4918011;28;88838;-35
2023/09/25 12:00:24;;;;;;;3.33;2.33;;;20.20;99.90;;;;;;4916255;28;89147;-34
2023/09/25 12:02:50;;;;;;;4.55;3.35;;;20.20;99.90;;;;;;4917349;28;90148;-34
2023/09/25 12:05:16;;;;;;;2.40;2.20;;;20.30;99.90;;;;;;4917435;28;90692;-35
2023/09/25 12:07:43;;;;;;;3.78;3.00;;;20.30;99.90;;;;;;4918010;28;89188;-35
2023/09/25 12:10:12;;;;;;;3.00;2.67;;;20.40;99.90;;;;;;4918455;28;90008;-36
2023/09/25 12:12:39;;;;;;;3.55;2.40;;;20.40;99.90;;;;;;4917218;28;89695;-31
2023/09/25 12:15:05;;;;;;;7.57;3.65;;;20.50;99.90;;;;;;4916662;28;89319;-37
2023/09/25 12:17:32;;;;;;;5.13;3.88;;;20.50;99.90;;;;;;4918347;28;88649;-34
2023/09/25 12:20:11;;;;;;;6.97;4.88;;;20.60;99.90;;;;;;4917674;28;89415;-34
2023/09/25 12:22:41;;;;;;;4.13;3.45;;;20.60;99.90;;;;;;4917986;28;89985;-37
2023/09/25 12:25:11;;;;;;;3.05;2.42;;;20.70;99.90;;;;;;4918312;28;90092;-33
2023/09/25 12:27:41;;;;;;;2.17;2.03;;;20.70;99.90;;;;;;4916705;28;89727;-33
2023/09/25 12:30:13;;;;;;;4.13;2.88;;;20.70;99.90;;;;;;4916705;28;90431;-36
2023/09/25 12:32:39;;;;;;;2.22;2.00;;;20.60;99.90;;;;;;4915952;28;91002;-34
2023/09/25 12:35:06;;;;;;;3.30;1.80;;;20.60;99.90;;;;;;4916654;28;90273;-34
2023/09/25 12:37:32;;;;;;;2.97;2.42;;;20.50;99.90;;;;;;4917677;28;90107;-33
2023/09/25 12:39:58;;;;;;;3.92;2.78;;;20.60;99.90;;;;;;4916006;28;90834;-35
2023/09/25 12:42:24;;;;;;;4.10;2.97;;;20.60;99.90;;;;;;4917606;28;88996;-33
2023/09/25 12:44:50;;;;;;;3.63;2.17;;;20.60;99.90;;;;;;4917489;28;90608;-34
2023/09/25 12:47:16;;;;;;;4.05;2.45;;;20.70;99.90;;;;;;4917509;28;88969;-38
2023/09/25 12:49:42;;;;;;;2.92;2.33;;;20.80;99.90;;;;;;4915984;28;90739;-37